createdAt,value
2022-12-04T00:02:21.223Z,224
2022-12-04T00:05:26.544Z,222
2022-12-04T00:08:31.859Z,217
2022-12-04T00:11:37.165Z,248
2022-12-04T00:15:26.759Z,238
2022-12-04T00:18:24.847Z,229
2022-12-04T00:21:30.158Z,235
2022-12-04T00:24:35.466Z,231
2022-12-04T00:28:17.809Z,235
2022-12-04T00:31:24.247Z,205
2022-12-04T00:34:28.443Z,230
2022-12-04T00:37:33.738Z,210
2022-12-04T00:40:39.078Z,236
2022-12-04T00:44:21.445Z,209
2022-12-04T00:47:26.788Z,210
2022-12-04T00:50:23.848Z,200
2022-12-04T00:53:29.147Z,165
2022-12-04T00:56:34.455Z,176
2022-12-04T01:00:16.804Z,173
2022-12-04T01:03:22.159Z,172
2022-12-04T01:06:27.485Z,155
2022-12-04T01:09:32.771Z,167
2022-12-04T01:12:38.107Z,152
2022-12-04T01:16:20.460Z,165
2022-12-04T01:19:25.780Z,146
2022-12-04T01:22:31.089Z,169
2022-12-04T01:25:36.375Z,153
2022-12-04T01:29:18.736Z,144
2022-12-04T01:32:24.095Z,174
2022-12-04T01:35:29.385Z,161
2022-12-04T01:38:34.702Z,173
2022-12-04T01:42:17.047Z,154
2022-12-04T01:45:22.381Z,168
2022-12-04T01:50:10.635Z,174
2022-12-04T01:52:38.900Z,174
2022-12-04T01:56:21.289Z,169
2022-12-04T01:59:26.636Z,154
2022-12-04T02:02:32.020Z,167
2022-12-04T02:05:37.270Z,146
2022-12-04T02:09:24.708Z,130
2022-12-04T02:12:24.899Z,145
2022-12-04T02:15:30.205Z,169
2022-12-04T02:18:35.514Z,171
2022-12-04T02:22:17.891Z,147
2022-12-04T02:25:23.225Z,144
2022-12-04T02:28:28.507Z,123
2022-12-04T02:31:33.812Z,134
2022-12-04T02:34:39.157Z,145
2022-12-04T02:38:21.519Z,151
2022-12-04T02:41:26.815Z,124
2022-12-04T02:44:32.083Z,132
2022-12-04T02:47:37.384Z,131
2022-12-04T02:50:42.753Z,135
2022-12-04T02:54:16.916Z,150
2022-12-04T02:57:22.206Z,152
2022-12-04T03:00:27.540Z,122
2022-12-04T03:03:32.800Z,130
2022-12-04T03:06:38.164Z,170
2022-12-04T03:10:20.533Z,141
2022-12-04T03:13:25.837Z,123
2022-12-04T03:16:31.169Z,132
2022-12-04T03:19:36.483Z,136
2022-12-04T03:23:18.828Z,132
2022-12-04T03:26:24.153Z,162
2022-12-04T03:29:29.443Z,118
2022-12-04T03:32:34.737Z,146
2022-12-04T03:36:17.116Z,128
2022-12-04T03:39:22.442Z,131
2022-12-04T03:42:27.762Z,146
2022-12-04T03:45:33.031Z,124
2022-12-04T03:50:21.360Z,116
2022-12-04T03:53:26.660Z,147
2022-12-04T03:56:31.988Z,126
2022-12-04T03:59:37.301Z,112
2022-12-04T04:03:19.635Z,129
2022-12-04T04:06:24.946Z,153
2022-12-04T04:11:21.470Z,129
2022-12-04T04:14:26.747Z,141
2022-12-04T04:17:36.687Z,131
2022-12-04T04:20:37.367Z,144
2022-12-04T04:24:19.764Z,126
2022-12-04T04:27:25.058Z,120
2022-12-04T04:30:30.358Z,149
2022-12-04T04:33:35.699Z,139
2022-12-04T04:37:18.054Z,153
2022-12-04T04:40:23.334Z,153
2022-12-04T04:43:28.633Z,143
2022-12-04T04:46:34.065Z,152
2022-12-04T04:49:39.284Z,143
2022-12-04T04:53:13.449Z,159
2022-12-04T04:56:18.773Z,134
2022-12-04T04:59:24.048Z,147
2022-12-04T05:02:29.446Z,158
2022-12-04T05:05:34.697Z,185
2022-12-04T05:09:17.101Z,132
2022-12-04T05:12:22.407Z,163
2022-12-04T05:15:27.683Z,154
2022-12-04T05:18:33.055Z,164
2022-12-04T05:21:38.307Z,169
2022-12-04T05:25:20.660Z,195
2022-12-04T05:28:26.002Z,160
2022-12-04T05:31:31.346Z,171
2022-12-04T05:34:36.638Z,177
2022-12-04T05:38:18.951Z,156
2022-12-04T05:41:24.289Z,187
2022-12-04T05:44:29.577Z,161
2022-12-04T05:47:34.917Z,167
2022-12-04T05:50:32.029Z,185
2022-12-04T05:53:37.351Z,174
2022-12-04T05:57:19.690Z,163
2022-12-04T06:00:57.244Z,212
2022-12-04T06:03:30.379Z,177
2022-12-04T06:06:35.600Z,166
2022-12-04T06:10:18.022Z,171
2022-12-04T06:13:23.312Z,170
2022-12-04T06:16:28.673Z,185
2022-12-04T06:19:33.929Z,185
2022-12-04T06:23:16.319Z,172
2022-12-04T06:26:21.595Z,171
2022-12-04T06:29:26.907Z,169
2022-12-04T06:32:32.226Z,161
2022-12-04T06:35:37.555Z,174
2022-12-04T06:39:19.919Z,172
2022-12-04T06:42:25.216Z,159
2022-12-04T06:45:30.535Z,179
2022-12-04T06:48:35.868Z,170
2022-12-04T06:52:10.055Z,145
2022-12-04T06:54:38.221Z,142
2022-12-04T06:58:20.620Z,135
2022-12-04T07:01:25.961Z,143
2022-12-04T07:04:31.256Z,126
2022-12-04T07:07:36.581Z,146
2022-12-04T07:11:18.909Z,127
2022-12-04T07:14:24.223Z,151
2022-12-04T07:17:29.549Z,158
2022-12-04T07:22:26.096Z,135
2022-12-04T07:25:31.379Z,147
2022-12-04T07:28:36.684Z,138
2022-12-04T07:32:19.060Z,128
2022-12-04T07:35:24.331Z,171
2022-12-04T07:38:29.659Z,143
2022-12-04T07:41:34.960Z,150
2022-12-04T07:45:17.305Z,126
2022-12-04T07:48:22.637Z,137
2022-12-04T07:51:19.761Z,124
2022-12-04T07:54:25.086Z,126
2022-12-04T07:57:30.369Z,124
2022-12-04T08:00:35.663Z,130
2022-12-04T08:04:18.106Z,129
2022-12-04T08:07:23.350Z,133
2022-12-04T08:10:28.697Z,132
2022-12-04T08:13:33.952Z,130
2022-12-04T08:16:39.347Z,129
2022-12-04T08:20:21.654Z,122
2022-12-04T08:23:26.965Z,128
2022-12-04T08:26:32.289Z,123
2022-12-04T08:29:37.567Z,145
2022-12-04T08:33:20.000Z,142
2022-12-04T08:36:25.245Z,144
2022-12-04T08:39:30.550Z,143
2022-12-04T08:42:35.890Z,141
2022-12-04T08:46:18.294Z,129
2022-12-04T08:49:23.535Z,131
2022-12-04T08:52:20.659Z,138
2022-12-04T08:55:26.028Z,126
2022-12-04T08:58:31.315Z,119
2022-12-04T09:01:36.670Z,130
2022-12-04T09:05:19.016Z,125
2022-12-04T09:08:24.284Z,160
2022-12-04T09:11:29.619Z,143
2022-12-04T09:14:34.895Z,135
2022-12-04T09:18:17.289Z,126
2022-12-04T09:21:22.610Z,124
2022-12-04T09:24:27.901Z,147
2022-12-04T09:27:33.229Z,130
2022-12-04T09:30:38.587Z,120
2022-12-04T09:34:20.877Z,138
2022-12-04T09:37:26.209Z,123
2022-12-04T09:40:37.418Z,105
2022-12-04T09:43:36.825Z,126
2022-12-04T09:47:19.207Z,157
2022-12-04T09:50:24.533Z,136
2022-12-04T09:53:21.644Z,133
2022-12-04T09:56:26.961Z,156
2022-12-04T09:59:32.222Z,162
2022-12-04T10:02:37.685Z,155
2022-12-04T10:06:19.912Z,171
2022-12-04T10:09:25.240Z,162
2022-12-04T10:12:30.529Z,177
2022-12-04T10:15:35.880Z,160
2022-12-04T10:19:18.331Z,177
2022-12-04T10:22:23.508Z,146
2022-12-04T10:25:31.944Z,160
2022-12-04T10:28:34.117Z,158
2022-12-04T10:31:39.577Z,168
2022-12-04T10:35:21.830Z,177
2022-12-04T10:38:27.105Z,161
2022-12-04T10:41:32.444Z,166
2022-12-04T10:44:37.744Z,171
2022-12-04T10:47:06.136Z,151
2022-12-04T10:49:34.230Z,165
2022-12-04T10:52:02.467Z,164
2022-12-04T10:54:22.525Z,196
2022-12-04T10:57:27.864Z,171
2022-12-04T11:00:33.164Z,159
2022-12-04T11:03:38.578Z,168
2022-12-04T11:07:20.825Z,149
2022-12-04T11:10:26.134Z,160
2022-12-04T11:13:31.419Z,186
2022-12-04T11:16:36.860Z,153
2022-12-04T11:20:19.159Z,162
2022-12-04T11:23:24.437Z,147
2022-12-04T11:26:29.808Z,156
2022-12-04T11:29:35.033Z,157
2022-12-04T11:33:17.414Z,121
2022-12-04T11:36:22.729Z,163
2022-12-04T11:39:28.044Z,164
2022-12-04T11:42:33.338Z,158
2022-12-04T11:45:38.693Z,178
2022-12-04T11:49:21.007Z,164
2022-12-04T11:54:09.346Z,147
2022-12-04T11:56:37.639Z,158
2022-12-04T12:00:19.982Z,143
2022-12-04T12:03:25.396Z,150
2022-12-04T12:06:30.577Z,131
2022-12-04T12:09:35.890Z,162
2022-12-04T12:13:18.274Z,145
2022-12-04T12:16:23.624Z,164
2022-12-04T12:19:28.887Z,163
2022-12-04T12:22:34.191Z,199
2022-12-04T12:25:39.508Z,175
2022-12-04T12:29:21.865Z,170
2022-12-04T12:32:27.181Z,170
2022-12-04T12:35:32.499Z,178
2022-12-04T12:38:37.821Z,167
2022-12-04T12:43:34.312Z,219
2022-12-04T12:46:39.602Z,205
2022-12-04T12:50:21.992Z,183
2022-12-04T12:53:19.164Z,189
2022-12-04T12:56:24.416Z,169
2022-12-04T12:59:29.747Z,188
2022-12-04T13:02:35.089Z,187
2022-12-04T13:06:17.381Z,202
2022-12-04T13:09:22.678Z,174
2022-12-04T13:12:28.041Z,190
2022-12-04T13:15:33.299Z,182
2022-12-04T13:18:38.678Z,181
2022-12-04T13:22:20.993Z,179
2022-12-04T13:25:26.303Z,179
2022-12-04T13:28:31.601Z,190
2022-12-04T13:31:37.008Z,192
2022-12-04T13:35:19.281Z,186
2022-12-04T13:38:24.643Z,192
2022-12-04T13:41:29.913Z,167
2022-12-04T13:44:35.193Z,172
2022-12-04T13:48:17.600Z,169
2022-12-04T13:51:22.925Z,208
2022-12-04T13:54:20.009Z,171
2022-12-04T13:57:25.335Z,199
2022-12-04T14:00:30.678Z,185
2022-12-04T14:03:35.981Z,161
2022-12-04T14:07:18.338Z,187
2022-12-04T14:10:23.625Z,204
2022-12-04T14:13:28.953Z,199
2022-12-04T14:16:34.281Z,194
2022-12-04T14:20:16.658Z,197
2022-12-04T14:23:21.927Z,184
2022-12-04T14:26:42.809Z,237
2022-12-04T14:29:32.525Z,162
2022-12-04T14:32:37.910Z,207
2022-12-04T14:36:20.257Z,193
2022-12-04T14:39:25.539Z,182
2022-12-04T14:42:30.822Z,239
2022-12-04T14:46:13.275Z,245
2022-12-04T14:49:18.554Z,228
2022-12-04T14:52:23.821Z,249
2022-12-04T14:55:20.990Z,229
2022-12-04T14:58:26.312Z,226
2022-12-04T15:01:31.624Z,232
2022-12-04T15:04:36.955Z,212
2022-12-04T15:08:19.319Z,213
2022-12-04T15:11:24.567Z,228
2022-12-04T15:14:29.858Z,213
2022-12-04T15:17:35.178Z,257
2022-12-04T15:21:17.563Z,215
2022-12-04T15:24:22.841Z,234
2022-12-04T15:27:32.230Z,230
2022-12-04T15:30:33.487Z,207
2022-12-04T15:33:38.822Z,219
2022-12-04T15:37:21.183Z,197
2022-12-04T15:40:26.477Z,149
2022-12-04T15:43:31.798Z,195
2022-12-04T15:46:37.136Z,158
2022-12-04T15:50:19.471Z,172
2022-12-04T15:53:24.761Z,189
2022-12-04T15:56:30.057Z,171
2022-12-04T15:59:35.357Z,168
2022-12-04T16:03:17.841Z,192
2022-12-04T16:06:14.900Z,196
2022-12-04T16:09:20.188Z,201
2022-12-04T16:12:25.481Z,171
2022-12-04T16:15:30.811Z,185
2022-12-04T16:18:36.133Z,188
2022-12-04T16:22:20.474Z,188
2022-12-04T16:25:23.817Z,171
2022-12-04T16:28:29.098Z,200
2022-12-04T16:31:34.531Z,174
2022-12-04T16:34:39.701Z,211
2022-12-04T16:38:22.098Z,211
2022-12-04T16:41:27.429Z,224
2022-12-04T16:44:32.729Z,251
2022-12-04T16:47:38.006Z,288
2022-12-04T16:51:20.416Z,264
2022-12-04T16:54:25.713Z,266
2022-12-04T16:57:31.018Z,260
2022-12-04T17:00:36.351Z,276
2022-12-04T17:04:18.750Z,253
2022-12-04T17:07:15.842Z,263
2022-12-04T17:10:23.891Z,216
2022-12-04T17:13:26.461Z,226
2022-12-04T17:16:31.752Z,262
2022-12-04T17:19:37.062Z,232
2022-12-04T17:23:19.380Z,244
2022-12-04T17:26:24.731Z,249
2022-12-04T17:29:30.032Z,221
2022-12-04T17:32:35.325Z,220
2022-12-04T17:36:17.752Z,233
2022-12-04T17:39:23.050Z,221
2022-12-04T17:42:28.314Z,220
2022-12-04T17:45:33.650Z,246
2022-12-04T17:49:15.976Z,226
2022-12-04T17:52:21.299Z,227
2022-12-04T17:55:26.658Z,225
2022-12-04T17:58:31.922Z,224
2022-12-04T18:01:37.313Z,250
2022-12-04T18:05:19.641Z,208
2022-12-04T18:08:16.775Z,237
2022-12-04T18:11:22.042Z,233
2022-12-04T18:14:27.401Z,227
2022-12-04T18:17:32.701Z,238
2022-12-04T18:20:37.957Z,229
2022-12-04T18:24:20.320Z,244
2022-12-04T18:27:25.647Z,230
2022-12-04T18:30:31.009Z,219
2022-12-04T18:33:36.289Z,258
2022-12-04T18:37:18.641Z,239
2022-12-04T18:40:23.951Z,263
2022-12-04T18:43:29.238Z,287
2022-12-04T18:46:34.669Z,263
2022-12-04T18:49:39.906Z,237
2022-12-04T18:53:22.250Z,270
2022-12-04T18:56:27.545Z,260
2022-12-04T18:59:32.917Z,273
2022-12-04T19:02:38.286Z,286
2022-12-04T19:06:20.715Z,244
2022-12-04T19:09:41.211Z,255
2022-12-04T19:12:31.181Z,273
2022-12-04T19:15:36.497Z,254
2022-12-04T19:19:30.199Z,265
2022-12-04T19:21:38.912Z,269
2022-12-04T19:25:21.307Z,264
2022-12-04T19:28:26.655Z,256
2022-12-04T19:31:32.036Z,255
2022-12-04T19:34:37.269Z,260
2022-12-04T19:38:19.581Z,245
2022-12-04T19:41:24.895Z,259
2022-12-04T19:44:48.994Z,261
2022-12-04T19:47:35.521Z,258
2022-12-04T19:51:17.953Z,248
2022-12-04T19:54:23.280Z,251
2022-12-04T19:57:28.598Z,234
2022-12-04T20:00:33.916Z,216
2022-12-04T20:04:16.229Z,243
2022-12-04T20:07:21.456Z,217
2022-12-04T20:10:26.795Z,213
2022-12-04T20:13:32.148Z,219
2022-12-04T20:16:37.488Z,215
2022-12-04T20:20:19.769Z,231
2022-12-04T20:23:25.131Z,215
2022-12-04T20:28:14.531Z,210
2022-12-04T20:31:18.919Z,236
2022-12-04T20:34:24.125Z,207
2022-12-04T20:37:29.315Z,233
2022-12-04T20:40:34.643Z,223
2022-12-04T20:44:17.043Z,210
2022-12-04T20:47:22.371Z,203
2022-12-04T20:50:27.691Z,208
2022-12-04T20:53:32.928Z,207
2022-12-04T20:56:38.229Z,212
2022-12-04T21:00:20.691Z,200
2022-12-04T21:03:25.913Z,206
2022-12-04T21:06:34.697Z,217
2022-12-04T21:09:36.557Z,213
2022-12-04T21:13:18.886Z,197
2022-12-04T21:16:24.302Z,203
2022-12-04T21:19:29.538Z,229
2022-12-04T21:22:34.866Z,198
2022-12-04T21:26:17.230Z,214
2022-12-04T21:29:14.322Z,245
2022-12-04T21:32:19.672Z,208
2022-12-04T21:35:24.947Z,234
2022-12-04T21:38:30.255Z,172
2022-12-04T21:41:35.571Z,175
2022-12-04T21:45:17.939Z,186
2022-12-04T21:48:23.230Z,195
2022-12-04T21:51:55.501Z,191
2022-12-04T21:54:33.891Z,171
2022-12-04T21:57:39.201Z,163
2022-12-04T22:01:21.646Z,151
2022-12-04T22:04:26.851Z,167
2022-12-04T22:07:32.197Z,169
2022-12-04T22:10:37.455Z,159
2022-12-04T22:14:19.841Z,141
2022-12-04T22:17:25.148Z,141
2022-12-04T22:20:30.435Z,145
2022-12-04T22:23:35.805Z,159
2022-12-04T22:27:18.163Z,152
2022-12-04T22:30:15.317Z,166
2022-12-04T22:33:20.567Z,185
2022-12-04T22:36:25.915Z,176
2022-12-04T22:39:31.208Z,161
2022-12-04T22:42:36.484Z,178
2022-12-04T22:46:18.951Z,193
2022-12-04T22:49:24.172Z,191
2022-12-04T22:52:29.489Z,176
2022-12-04T22:55:34.843Z,154
2022-12-04T22:59:17.157Z,183
2022-12-04T23:02:22.460Z,183
2022-12-04T23:05:27.834Z,143
2022-12-04T23:08:33.076Z,151
2022-12-04T23:11:38.397Z,141
2022-12-04T23:15:20.759Z,155
2022-12-04T23:18:26.131Z,149
2022-12-04T23:21:31.472Z,168
2022-12-04T23:24:36.710Z,175
2022-12-04T23:30:39.157Z,149
2022-12-04T23:34:21.515Z,131
2022-12-04T23:37:26.848Z,169
2022-12-04T23:40:32.180Z,136
2022-12-04T23:44:14.470Z,146
2022-12-04T23:47:19.912Z,168
2022-12-04T23:50:25.140Z,143
2022-12-04T23:53:30.429Z,137
2022-12-04T23:56:35.765Z,130
